Relevés horaires Stabio (Suisse)


Relevés horaires à Stabio - Lundi 18 Nov. 2002
Heure UTC1 Température [°C] Vent [km/h] Hum. [%] Pres.4 [hPa] Visi. [Km] Nébu. [octa] Préc.5 [mm] Cond.
2m. Res. Ros. Dir.2 Vit. Moy. Raf.3
23:00 9.4 9.4 7.9 ENE 3.7 -- -- 90 1006.2 -- -- -- --
22:00 9.1 9.1 7.6 OSO 1.9 -- -- 90 1006.5 -- -- -- --
21:00 9.3 9.3 7.7 S 1.9 -- -- 90 1006.5 -- -- -- --
20:00 9.2 9.2 7.6 NE 1.9 -- -- 90 1006.5 -- -- -- --
19:00 9.3 9.3 7.8 SSE 1.9 -- -- 90 1006.7 -- -- -- --
18:00 9.4 9.4 7.8 SSO 1.9 -- -- 90 1006.5(-0.2/3h) -- -- 20/12h
--
17:00 9.3 9.3 7.9 NNO 0.0 -- -- 91 1006.5 -- -- -- --
16:00 9.6 9.6 7.4 E 1.9 -- -- 86 1006 -- -- -- --
15:00 9.4 9.4 7.3 ENE 3.7 -- -- 87 1006.7 -- -- -- --
14:00 9.4 8.9 6.7 E 5.6 -- -- 83 1007.1 -- -- -- --
13:00 9.8 8.9 6.0 ENE 7.4 -- -- 77 1008.2 -- -- -- --
12:00 9.6 9.1 7.4 E 5.6 -- -- 86 1009.5(-4.3/3h) -- -- -- --
11:00 9.3 9.3 7.6 SSO 1.9 -- -- 89 1010.9 -- -- -- --
10:00 9.2 9.2 7.7 NNO 0.0 -- -- 90 1013.4 -- -- -- --
09:00 9.0 9.0 7.5 O 1.9 -- -- 90 1014.1(0.5/3h) -- -- -- --
08:00 8.7 8.7 7.1 OSO 3.7 -- -- 90 1013.7 -- -- -- --
06:00 8.0 8.0 6.6 SSO 3.7 -- -- 91 1013.7(-2.6/3h) -- -- 0.6/12h
--
05:00 8.1 8.1 6.5 SSO 3.7 -- -- 90 1014.5 -- -- -- --
04:00 7.7 7.7 6.3 SO 3.7 -- -- 91 1015.1 -- -- -- --
03:00 7.3 7.3 5.9 SSO 1.9 -- -- 91 1016.5 -- -- -- --
02:00 7.2 7.2 5.9 SO 3.7 -- -- 91 1016.7 -- -- -- --
01:00 8.3 8.3 6.9 SO 3.7 -- -- 91 1017 -- -- -- --
00:00 9.6 9.6 8.0 SO 3.7 -- -- 90 1017.9(-1.1/3h) -- -- -- --

1 Coordinated Universal Time. Actuellement il est 20:00 locale et 18:00 UTC.

2 Le vent souffle depuis la direction indiquée vers la direction oposée.

3 Les rafales max. sont disponible 40 min après l'heure du relevé.

4 Pour les stations d'altitude (plus de 600m) le géopotentiel du niveau le plus proche de la pression obligatoire est indiqué.

5 Les stations disposant d'un diffuseur peuvent indiquer "trace". Cela signifie que des précipitations ont touchés le sol mais que la quantité est inférieure à 0.1 mm.

Copyright

Les données affichées sur cette page sont la propriété exclusive de Météo Suisse.

Récapitulatif de la journée
Température [°C] Vent [km/h] Ensoleillement4 [h] Precipitations totale5 [mm] Pression [Hpa]
Min1 Max.2 Moy.3 Max. Min Max.
7.1 10.2 0 -- 0 h 0 min 40 1006.0 1017.9

1 Température minimale relevée entre 18:00 UTC la veille et 18:00 UTC le jour donné.

2 Température maximale relevée entre 06:00 UTC le jour donné et 06:00 UTC le lendemain.

3 Vent moyen de la journée basé sur les relevés horaires.

4 Ensoleillement en heures relevé entre 06:00 UTC la veille et 06:00 UTC le jour donné.

5 Précipitations totales tombées entre 06:00 UTC la jour donné et 06:00 UTC le lendemain.

Graphiques horaires